WMKM

Details ICAO WMKM (MKZ)
Name Malacca
Region Malaysia (Peninsular Malaysia)
Timezone Asia/Kuala_Lumpur (UTC+8.0)
Plans Departing 22
Arriving 21
Stats Elevation 35 ft / 11 m (AMSL)
Location 2.263362° 102.251553°
Runways 1
Magnetic Variation 0.065° E
Sunrise 2018-05-24 23:02:19 UTC / 2018-05-25 07:02:19 Local
Sunset 2018-05-25 11:16:22 UTC / 2018-05-25 19:16:22 Local
Advertisement - Login to hide

Runways

ID Width Length Bearing (true) Bearing (mag) Surface Threshold Offset Overrun Length
03 121 ft / 37 m 4,523 ft / 1,379 m 29.93° 29.86° Asphalt 0 ft / 0 m 200 ft / 61 m
21 121 ft / 37 m 4,523 ft / 1,379 m 209.93° 209.86° Asphalt 0 ft / 0 m 200 ft / 61 m

Map

Weather


0- 5 10 15 20 25 30 35+ Temperature / ° C

Clouds and Precipitation
Forecast for 2018-05-24 18:00 UTC. Updated 3 hours ago

Ground ~20,000 ft ~40,000 ft Winds

METAR

WMKM 242000Z VRB02KT 9999 FEW004 BKN140 25/24 Q1008

TAF

Not found

Frequencies

Ground 121.60 MHz GND
Tower 118.00 MHz TWR
Warning: Do not use this data for real-world aviation or navigation. No guarantee of current accuracy is given.